createdAt,value
2018-01-22T00:04:32.449Z,95309.41
2018-01-22T00:07:05.164Z,95307.98
2018-01-22T00:09:38.011Z,95307.20
2018-01-22T00:12:11.336Z,95301.41
2018-01-22T00:14:44.350Z,95295.69
2018-01-22T00:17:16.747Z,95279.70
2018-01-22T00:19:49.618Z,95277.71
2018-01-22T00:22:20.801Z,95270.98
2018-01-22T00:24:53.835Z,95271.14
2018-01-22T00:27:26.624Z,95265.67
2018-01-22T00:29:59.093Z,95263.23
2018-01-22T00:32:31.780Z,95261.41
2018-01-22T00:35:03.391Z,95255.41
2018-01-22T00:37:36.967Z,95249.41
2018-01-22T00:40:09.340Z,95252.44
2018-01-22T00:42:42.338Z,95251.52
2018-01-22T00:45:15.192Z,95242.63
2018-01-22T00:47:47.428Z,95243.88
2018-01-22T00:50:19.534Z,95237.17
2018-01-22T00:55:29.393Z,95235.20
2018-01-22T00:58:01.076Z,95233.61
2018-01-22T01:00:32.423Z,95229.84
2018-01-22T01:03:04.772Z,95229.25
2018-01-22T01:05:38.510Z,95228.83
2018-01-22T01:08:11.062Z,95227.12
2018-01-22T01:10:44.214Z,95226.61
2018-01-22T01:13:15.754Z,95223.33
2018-01-22T01:15:48.005Z,95215.20
2018-01-22T01:18:18.874Z,95210.84
2018-01-22T01:20:52.001Z,95203.33
2018-01-22T01:23:23.209Z,95205.14
2018-01-22T01:25:52.288Z,95200.25
2018-01-22T01:28:21.342Z,95192.59
2018-01-22T01:30:50.376Z,95185.33
2018-01-22T01:33:22.774Z,95183.86
2018-01-22T01:35:56.116Z,95176.90
2018-01-22T01:38:28.743Z,95171.81
2018-01-22T01:41:01.376Z,95160.72
2018-01-22T01:43:32.741Z,95160.27
2018-01-22T01:46:05.693Z,95154.81
2018-01-22T01:48:37.846Z,95145.36
2018-01-22T01:51:09.842Z,95138.44
2018-01-22T01:53:40.778Z,95142.42
2018-01-22T01:56:14.251Z,95139.78
2018-01-22T01:58:47.095Z,95135.55
2018-01-22T02:01:19.585Z,95133.38
2018-01-22T02:03:52.602Z,95129.95
2018-01-22T02:06:25.932Z,95124.16
2018-01-22T02:08:58.288Z,95119.86
2018-01-22T02:11:31.677Z,95118.62
2018-01-22T02:14:04.112Z,95116.17
2018-01-22T02:16:37.619Z,95118.41
2018-01-22T02:19:08.906Z,95106.75
2018-01-22T02:21:40.821Z,95103.69
2018-01-22T02:24:14.748Z,95100.02
2018-01-22T02:26:48.174Z,95091.11
2018-01-22T02:29:20.225Z,95085.76
2018-01-22T02:31:53.210Z,95085.08
2018-01-22T02:34:26.090Z,95078.13
2018-01-22T02:36:58.228Z,95071.54
2018-01-22T02:39:31.808Z,95070.38
2018-01-22T02:42:04.271Z,95057.09
2018-01-22T02:44:37.512Z,95055.13
2018-01-22T02:47:10.800Z,95047.25
2018-01-22T02:49:43.679Z,95040.95
2018-01-22T02:52:16.538Z,95040.72
2018-01-22T02:54:50.326Z,95040.77
2018-01-22T02:57:24.183Z,95040.64
2018-01-22T02:59:55.877Z,95043.06
2018-01-22T03:02:28.840Z,95037.94
2018-01-22T03:05:02.742Z,95027.27
2018-01-22T03:07:34.798Z,95030.08
2018-01-22T03:10:05.916Z,95031.83
2018-01-22T03:12:38.888Z,95026.56
2018-01-22T03:15:11.629Z,95037.11
2018-01-22T03:17:43.913Z,95042.42
2018-01-22T03:20:16.886Z,95040.95
2018-01-22T03:22:49.881Z,95045.27
2018-01-22T03:25:22.163Z,95035.88
2018-01-22T03:33:09.256Z,95038.45
2018-01-22T03:35:41.675Z,95039.45
2018-01-22T03:38:15.204Z,95041.30
2018-01-22T03:40:48.381Z,95037.58
2018-01-22T03:43:20.470Z,95032.82
2018-01-22T03:45:53.031Z,95033.70
2018-01-22T03:51:03.239Z,95037.20
2018-01-22T03:53:36.330Z,95039.27
2018-01-22T03:56:09.454Z,95040.73
2018-01-22T03:58:42.262Z,95036.27
2018-01-22T04:01:16.207Z,95036.56
2018-01-22T04:03:51.104Z,95032.85
2018-01-22T04:06:23.636Z,95032.70
2018-01-22T04:08:55.938Z,95030.35
2018-01-22T04:14:10.112Z,95019.33
2018-01-22T04:16:43.258Z,95005.83
2018-01-22T04:19:16.181Z,94999.81
2018-01-22T04:21:49.460Z,95001.62
2018-01-22T04:24:21.122Z,94990.52
2018-01-22T04:29:30.514Z,94995.77
2018-01-22T04:32:02.787Z,94984.30
2018-01-22T04:34:36.154Z,94998.78
2018-01-22T04:37:09.531Z,94997.74
2018-01-22T04:39:42.889Z,94980.03
2018-01-22T04:42:16.492Z,94987.35
2018-01-22T04:44:49.908Z,94994.64
2018-01-22T04:49:59.455Z,94973.16
2018-01-22T04:55:11.318Z,94956.09
2018-01-22T04:57:43.905Z,94964.13
2018-01-22T05:00:15.887Z,94964.91
2018-01-22T05:02:48.880Z,94962.43
2018-01-22T05:05:21.957Z,94947.97
2018-01-22T05:07:55.033Z,94944.72
2018-01-22T05:10:28.242Z,94940.84
2018-01-22T05:13:00.651Z,94931.05
2018-01-22T05:15:32.668Z,94925.46
2018-01-22T05:18:04.880Z,94920.50
2018-01-22T05:20:37.002Z,94925.50
2018-01-22T05:23:09.172Z,94924.03
2018-01-22T05:25:42.542Z,94923.24
2018-01-22T05:28:15.801Z,94923.13
2018-01-22T05:30:48.411Z,94929.95
2018-01-22T05:36:00.318Z,94931.20
2018-01-22T05:38:33.428Z,94934.46
2018-01-22T05:41:06.292Z,94924.21
2018-01-22T05:43:38.272Z,94925.41
2018-01-22T05:46:10.906Z,94923.80
2018-01-22T05:48:46.672Z,94922.80
2018-01-22T05:51:19.336Z,94922.38
2018-01-22T05:53:52.389Z,94919.67
2018-01-22T05:56:25.750Z,94918.17
2018-01-22T06:01:35.438Z,94929.27
2018-01-22T06:04:09.548Z,94925.70
2018-01-22T06:06:42.771Z,94923.24
2018-01-22T06:11:53.473Z,94922.86
2018-01-22T06:14:26.340Z,94924.39
2018-01-22T06:19:35.029Z,94931.19
2018-01-22T06:22:07.401Z,94926.11
2018-01-22T06:24:40.632Z,94936.62
2018-01-22T06:27:14.472Z,94930.45
2018-01-22T06:29:47.563Z,94926.90
2018-01-22T06:32:20.499Z,94928.20
2018-01-22T06:34:52.205Z,94924.87
2018-01-22T06:37:25.920Z,94927.13
2018-01-22T06:40:00.335Z,94927.95
2018-01-22T06:42:32.585Z,94929.45
2018-01-22T06:47:42.933Z,94911.13
2018-01-22T06:50:14.934Z,94921.52
2018-01-22T06:55:24.120Z,94920.83
2018-01-22T06:57:56.683Z,94919.39
2018-01-22T07:00:29.298Z,94914.61
2018-01-22T07:03:01.503Z,94910.37
2018-01-22T07:05:34.113Z,94911.95
2018-01-22T07:08:07.629Z,94927.67
2018-01-22T07:10:41.340Z,94919.16
2018-01-22T07:13:13.079Z,94919.65
2018-01-22T07:15:45.637Z,94919.56
2018-01-22T07:20:56.265Z,94916.48
2018-01-22T07:23:28.185Z,94914.91
2018-01-22T07:25:59.324Z,94915.81
2018-01-22T07:28:33.742Z,94912.66
2018-01-22T07:31:06.890Z,94915.52
2018-01-22T07:33:39.576Z,94921.20
2018-01-22T07:36:12.452Z,94913.11
2018-01-22T07:38:43.153Z,94920.41
2018-01-22T07:43:54.138Z,94908.14
2018-01-22T07:46:27.462Z,94906.73
2018-01-22T07:48:58.431Z,94901.83
2018-01-22T07:51:30.660Z,94915.00
2018-01-22T07:54:05.517Z,94908.00
2018-01-22T07:56:38.475Z,94906.87
2018-01-22T07:59:11.966Z,94905.43
2018-01-22T08:01:45.712Z,94904.28
2018-01-22T08:04:18.231Z,94902.48
2018-01-22T08:06:48.629Z,94902.40
2018-01-22T08:09:21.804Z,94899.98
2018-01-22T08:11:54.775Z,94892.47
2018-01-22T08:14:27.918Z,94894.73
2018-01-22T08:17:01.183Z,94897.73
2018-01-22T08:19:33.502Z,94891.13
2018-01-22T08:22:06.223Z,94895.27
2018-01-22T08:24:39.330Z,94886.34
2018-01-22T08:29:54.970Z,94879.71
2018-01-22T08:32:28.203Z,94875.77
2018-01-22T08:35:01.319Z,94874.53
2018-01-22T08:37:33.975Z,94877.81
2018-01-22T08:42:39.091Z,94865.75
2018-01-22T08:45:13.277Z,94867.95
2018-01-22T08:47:45.769Z,94863.77
2018-01-22T08:50:17.343Z,94850.01
2018-01-22T08:52:49.182Z,94842.16
2018-01-22T09:00:36.998Z,94841.06
2018-01-22T09:05:45.260Z,94846.19
2018-01-22T09:08:18.111Z,94850.86
2018-01-22T09:13:27.175Z,94848.58
2018-01-22T09:15:59.903Z,94841.67
2018-01-22T09:18:33.488Z,94848.31
2018-01-22T09:21:05.294Z,94848.38
2018-01-22T09:23:34.437Z,94846.02
2018-01-22T09:26:06.110Z,94844.31
2018-01-22T09:28:39.724Z,94840.30
2018-01-22T09:31:12.112Z,94841.17
2018-01-22T09:33:45.882Z,94836.12
2018-01-22T09:36:19.061Z,94841.55
2018-01-22T09:38:52.464Z,94838.22
2018-01-22T09:41:22.529Z,94834.92
2018-01-22T09:43:54.964Z,94833.61
2018-01-22T09:46:27.728Z,94831.22
2018-01-22T09:51:36.065Z,94823.84
2018-01-22T09:54:07.606Z,94821.80
2018-01-22T09:59:17.906Z,94828.14
2018-01-22T10:04:26.022Z,94831.93
2018-01-22T10:06:59.041Z,94828.02
2018-01-22T10:09:32.873Z,94819.72
2018-01-22T10:12:01.882Z,94822.80
2018-01-22T10:17:10.851Z,94824.42
2018-01-22T10:19:45.749Z,94824.22
2018-01-22T10:22:18.665Z,94817.09
2018-01-22T10:27:27.547Z,94810.03
2018-01-22T10:37:49.063Z,94797.05
2018-01-22T10:40:19.574Z,94798.91
2018-01-22T10:48:03.494Z,94789.50
2018-01-22T10:50:37.135Z,94776.09
2018-01-22T10:53:08.759Z,94777.50
2018-01-22T10:55:42.616Z,94767.05
2018-01-22T10:58:15.875Z,94756.00
2018-01-22T11:00:49.197Z,94755.84
2018-01-22T11:03:20.198Z,94739.94
2018-01-22T11:11:05.333Z,94733.61
2018-01-22T11:13:38.442Z,94738.10
2018-01-22T11:16:12.966Z,94738.70
2018-01-22T11:18:45.961Z,94732.11
2018-01-22T11:21:18.258Z,94728.39
2018-01-22T11:23:50.306Z,94730.29
2018-01-22T11:26:22.321Z,94731.48
2018-01-22T11:28:55.938Z,94725.36
2018-01-22T11:31:29.378Z,94731.17
2018-01-22T11:34:02.011Z,94735.16
2018-01-22T11:36:35.327Z,94737.77
2018-01-22T11:39:09.935Z,94729.26
2018-01-22T11:41:42.556Z,94726.33
2018-01-22T11:44:15.183Z,94711.66
2018-01-22T11:49:22.093Z,94718.61
2018-01-22T11:51:53.814Z,94722.00
2018-01-22T11:57:01.949Z,94699.39
2018-01-22T11:59:34.442Z,94697.51
2018-01-22T12:02:07.247Z,94705.09
2018-01-22T12:04:41.378Z,94718.75
2018-01-22T12:07:14.471Z,94713.95
2018-01-22T12:09:48.726Z,94725.06
2018-01-22T12:14:59.762Z,94728.88
2018-01-22T12:17:32.960Z,94736.05
2018-01-22T12:20:05.993Z,94731.25
2018-01-22T12:22:38.973Z,94737.14
2018-01-22T12:25:11.397Z,94743.91
2018-01-22T12:27:45.413Z,94740.99
2018-01-22T12:30:18.080Z,94734.61
2018-01-22T12:32:50.509Z,94746.17
2018-01-22T12:35:22.972Z,94735.81
2018-01-22T12:37:56.135Z,94740.17
2018-01-22T12:40:28.586Z,94745.76
2018-01-22T12:43:01.225Z,94736.73
2018-01-22T12:48:10.741Z,94741.33
2018-01-22T12:50:43.205Z,94743.01
2018-01-22T12:55:57.637Z,94740.63
2018-01-22T13:01:06.120Z,94745.92
2018-01-22T13:03:37.213Z,94740.51
2018-01-22T13:06:09.770Z,94736.79
2018-01-22T13:08:43.439Z,94729.22
2018-01-22T13:11:15.860Z,94733.91
2018-01-22T13:13:48.977Z,94727.39
2018-01-22T13:16:20.687Z,94730.81
2018-01-22T13:18:54.496Z,94728.70
2018-01-22T13:21:27.477Z,94729.76
2018-01-22T13:26:38.711Z,94728.87
2018-01-22T13:31:47.411Z,94733.16
2018-01-22T13:34:18.770Z,94737.39
2018-01-22T13:36:51.684Z,94748.72
2018-01-22T13:39:22.941Z,94750.33
2018-01-22T13:41:55.454Z,94750.14
2018-01-22T13:44:24.457Z,94755.30
2018-01-22T13:46:57.032Z,94756.53
2018-01-22T13:49:30.136Z,94758.00
2018-01-22T13:52:03.275Z,94756.05
2018-01-22T13:54:35.887Z,94757.52
2018-01-22T13:57:08.858Z,94761.47
2018-01-22T13:59:42.425Z,94758.07
2018-01-22T14:02:13.972Z,94758.63
2018-01-22T14:04:46.954Z,94762.18
2018-01-22T14:07:19.511Z,94751.66
2018-01-22T14:12:28.143Z,94761.03
2018-01-22T14:17:41.906Z,94766.54
2018-01-22T14:22:50.859Z,94770.23
2018-01-22T14:25:22.960Z,94774.50
2018-01-22T14:27:54.442Z,94775.73
2018-01-22T14:30:28.661Z,94786.59
2018-01-22T14:33:01.767Z,94778.38
2018-01-22T14:35:33.324Z,94776.80
2018-01-22T14:43:20.014Z,94775.16
2018-01-22T14:45:52.430Z,94778.52
2018-01-22T14:48:23.777Z,94780.48
2018-01-22T14:53:32.641Z,94777.56
2018-01-22T14:56:05.466Z,94776.91
2018-01-22T14:58:38.246Z,94778.81
2018-01-22T15:01:20.334Z,94778.81
2018-01-22T15:03:53.324Z,94787.24
2018-01-22T15:06:25.460Z,94789.40
2018-01-22T15:08:58.829Z,94798.63
2018-01-22T15:14:06.875Z,94804.09
2018-01-22T15:16:40.060Z,94806.41
2018-01-22T15:19:14.081Z,94812.55
2018-01-22T15:21:47.431Z,94808.48
2018-01-22T15:26:55.187Z,94811.51
2018-01-22T15:29:29.088Z,94809.11
2018-01-22T15:32:02.446Z,94812.97
2018-01-22T15:34:35.568Z,94809.77
2018-01-22T15:39:44.489Z,94811.50
2018-01-22T15:42:16.632Z,94813.67
2018-01-22T15:44:49.546Z,94811.11
2018-01-22T15:47:21.794Z,94816.70
2018-01-22T15:49:55.504Z,94823.16
2018-01-22T15:52:29.299Z,94824.72
2018-01-22T15:55:02.984Z,94830.66
2018-01-22T15:57:35.319Z,94837.12
2018-01-22T16:00:08.006Z,94834.92
2018-01-22T16:02:40.276Z,94831.20
2018-01-22T16:05:14.791Z,94837.31
2018-01-22T16:07:47.477Z,94835.16
2018-01-22T16:10:20.575Z,94838.92
2018-01-22T16:15:30.891Z,94852.22
2018-01-22T16:17:59.914Z,94857.06
2018-01-22T16:23:08.962Z,94855.66
2018-01-22T16:25:41.574Z,94859.77
2018-01-22T16:28:13.503Z,94855.37
2018-01-22T16:30:46.244Z,94855.61
2018-01-22T16:33:17.652Z,94855.19
2018-01-22T16:35:49.811Z,94860.06
2018-01-22T16:38:22.266Z,94855.27
2018-01-22T16:40:54.594Z,94863.26
2018-01-22T16:43:27.016Z,94860.86
2018-01-22T16:45:59.400Z,94867.52
2018-01-22T16:48:32.069Z,94864.34
2018-01-22T16:51:05.434Z,94859.69
2018-01-22T16:53:38.917Z,94866.00
2018-01-22T16:56:13.149Z,94872.97
2018-01-22T16:58:45.267Z,94874.52
2018-01-22T17:01:16.300Z,94873.52
2018-01-22T17:03:47.807Z,94879.34
2018-01-22T17:06:20.484Z,94882.30
2018-01-22T17:08:53.151Z,94884.41
2018-01-22T17:11:26.713Z,94889.59
2018-01-22T17:16:35.869Z,94897.97
2018-01-22T17:19:08.925Z,94907.06
2018-01-22T17:21:42.002Z,94911.77
2018-01-22T17:24:14.571Z,94915.67
2018-01-22T17:26:47.680Z,94919.80
2018-01-22T17:29:20.622Z,94923.21
2018-01-22T17:31:52.412Z,94923.58
2018-01-22T17:34:25.523Z,94922.32
2018-01-22T17:36:58.413Z,94929.09
2018-01-22T17:39:31.857Z,94933.48
2018-01-22T17:42:05.187Z,94927.73
2018-01-22T17:44:37.449Z,94939.62
2018-01-22T17:47:10.071Z,94940.59
2018-01-22T17:49:43.648Z,94941.17
2018-01-22T17:52:15.947Z,94951.13
2018-01-22T17:54:48.711Z,94953.16
2018-01-22T17:57:20.830Z,94950.36
2018-01-22T17:59:54.678Z,94952.95
2018-01-22T18:02:27.420Z,94959.23
2018-01-22T18:05:00.316Z,94963.79
2018-01-22T18:07:33.388Z,94972.24
2018-01-22T18:10:06.010Z,94973.97
2018-01-22T18:12:38.685Z,94974.49
2018-01-22T18:15:11.051Z,94975.23
2018-01-22T18:17:43.979Z,94981.93
2018-01-22T18:20:16.728Z,94984.14
2018-01-22T18:22:49.317Z,94990.31
2018-01-22T18:25:22.030Z,94992.00
2018-01-22T18:27:54.619Z,94999.28
2018-01-22T18:30:28.083Z,95003.65
2018-01-22T18:35:37.612Z,95007.92
2018-01-22T18:38:09.786Z,95011.06
2018-01-22T18:40:42.766Z,95011.73
2018-01-22T18:43:14.908Z,95016.01
2018-01-22T18:48:27.662Z,95019.09
2018-01-22T18:51:00.494Z,95029.95
2018-01-22T18:53:32.779Z,95031.28
2018-01-22T18:56:05.658Z,95033.20
2018-01-22T18:58:38.047Z,95041.93
2018-01-22T19:01:10.714Z,95045.11
2018-01-22T19:03:43.223Z,95042.95
2018-01-22T19:06:16.756Z,95047.06
2018-01-22T19:08:49.706Z,95052.38
2018-01-22T19:11:23.336Z,95056.20
2018-01-22T19:13:56.082Z,95065.91
2018-01-22T19:16:29.058Z,95066.32
2018-01-22T19:19:01.845Z,95067.98
2018-01-22T19:21:34.999Z,95065.98
2018-01-22T19:24:08.484Z,95067.55
2018-01-22T19:26:41.520Z,95067.25
2018-01-22T19:31:49.954Z,95082.69
2018-01-22T19:34:23.885Z,95082.63
2018-01-22T19:39:33.197Z,95095.31
2018-01-22T19:42:07.314Z,95089.59
2018-01-22T19:44:38.111Z,95101.30
2018-01-22T19:47:11.873Z,95110.06
2018-01-22T19:49:43.598Z,95120.86
2018-01-22T19:52:16.644Z,95126.26
2018-01-22T19:57:25.987Z,95143.45
2018-01-22T19:59:59.203Z,95153.30
2018-01-22T20:02:32.325Z,95158.27
2018-01-22T20:05:05.256Z,95164.03
2018-01-22T20:07:38.009Z,95171.41
2018-01-22T20:10:11.778Z,95176.02
2018-01-22T20:12:45.380Z,95188.74
2018-01-22T20:15:18.234Z,95192.05
2018-01-22T20:17:50.856Z,95192.54
2018-01-22T20:20:23.777Z,95195.59
2018-01-22T20:22:56.193Z,95197.79
2018-01-22T20:25:29.184Z,95202.09
2018-01-22T20:28:01.852Z,95210.92
2018-01-22T20:30:35.707Z,95221.14
2018-01-22T20:33:07.282Z,95215.86
2018-01-22T20:38:16.289Z,95230.85
2018-01-22T20:40:49.457Z,95229.22
2018-01-22T20:43:22.890Z,95227.45
2018-01-22T20:45:56.565Z,95234.12
2018-01-22T20:48:30.176Z,95238.67
2018-01-22T20:51:02.185Z,95240.66
2018-01-22T20:53:35.125Z,95249.23
2018-01-22T20:56:08.643Z,95265.51
2018-01-22T20:58:41.579Z,95274.80
2018-01-22T21:03:50.687Z,95296.13
2018-01-22T21:06:23.368Z,95308.63
2018-01-22T21:08:56.864Z,95313.09
2018-01-22T21:11:30.387Z,95325.85
2018-01-22T21:14:02.513Z,95325.61
2018-01-22T21:16:34.335Z,95331.01
2018-01-22T21:19:07.923Z,95334.79
2018-01-22T21:21:40.630Z,95330.48
2018-01-22T21:24:13.945Z,95337.69
2018-01-22T21:26:47.327Z,95342.58
2018-01-22T21:29:20.286Z,95352.16
2018-01-22T21:31:53.570Z,95358.07
2018-01-22T21:34:26.317Z,95366.13
2018-01-22T21:39:36.540Z,95367.16
2018-01-22T21:42:09.605Z,95373.87
2018-01-22T21:44:41.221Z,95387.15
2018-01-22T21:52:28.489Z,95411.88
2018-01-22T21:55:00.803Z,95417.72
2018-01-22T21:57:36.017Z,95425.19
2018-01-22T22:00:09.756Z,95430.30
2018-01-22T22:02:45.300Z,95440.89
2018-01-22T22:05:18.880Z,95447.80
2018-01-22T22:07:52.425Z,95452.88
2018-01-22T22:10:24.849Z,95462.33
2018-01-22T22:12:58.179Z,95469.02
2018-01-22T22:15:29.794Z,95477.32
2018-01-22T22:18:02.241Z,95485.25
2018-01-22T22:20:34.207Z,95492.39
2018-01-22T22:23:07.787Z,95497.77
2018-01-22T22:25:40.569Z,95503.41
2018-01-22T22:28:13.441Z,95515.22
2018-01-22T22:30:46.593Z,95512.64
2018-01-22T22:33:17.953Z,95515.43
2018-01-22T22:35:50.817Z,95523.19
2018-01-22T22:38:23.284Z,95534.77
2018-01-22T22:43:31.487Z,95546.27
2018-01-22T22:46:04.460Z,95553.27
2018-01-22T22:48:37.613Z,95563.51
2018-01-22T22:53:46.807Z,95572.71
2018-01-22T22:56:19.242Z,95587.09
2018-01-22T22:58:52.468Z,95590.27
2018-01-22T23:01:25.090Z,95595.95
2018-01-22T23:03:56.925Z,95606.27
2018-01-22T23:06:29.298Z,95612.08
2018-01-22T23:09:02.214Z,95626.82
2018-01-22T23:11:35.652Z,95628.41
2018-01-22T23:16:44.747Z,95637.27
2018-01-22T23:24:28.327Z,95637.31
2018-01-22T23:29:36.867Z,95642.93
2018-01-22T23:34:44.647Z,95648.38
2018-01-22T23:37:16.672Z,95645.40
2018-01-22T23:42:26.500Z,95664.92
2018-01-22T23:47:38.260Z,95667.52
2018-01-22T23:50:11.097Z,95666.47
2018-01-22T23:55:19.694Z,95680.25
2018-01-22T23:57:51.936Z,95686.02
